Time;durP1;ratioP1;P1;durP2;ratioP2;P2;SDS_P1;SDS_P2;PMS_P1;PMS_P2;Temp;Humidity;BMP_temperature;BMP_pressure;BME280_temperature;BME280_humidity;BME280_pressure;Samples;Min_cycle;Max_cycle;Signal;HPM_P1;HPM_P2
2023/10/26 00:02:22;;;;;;;2.00;1.23;;;;;;;17.28;69.13;101487.00;5051742;28;20490;-58
2023/10/26 00:04:49;;;;;;;5.85;1.30;;;;;;;17.22;69.82;101479.81;5052167;28;20082;-59
2023/10/26 00:07:15;;;;;;;4.45;1.10;;;;;;;17.24;70.29;101473.09;5051986;28;20405;-58
2023/10/26 00:09:41;;;;;;;3.00;1.00;;;;;;;17.25;69.61;101473.91;5051715;28;20104;-59
2023/10/26 00:12:07;;;;;;;5.05;1.25;;;;;;;17.33;70.02;101473.56;5052287;28;20021;-58
2023/10/26 00:14:34;;;;;;;5.47;1.20;;;;;;;17.38;69.54;101476.41;5051980;28;20552;-58
2023/10/26 00:17:00;;;;;;;5.80;1.50;;;;;;;17.19;70.94;101464.03;5051963;28;20025;-58
2023/10/26 00:19:26;;;;;;;4.20;1.13;;;;;;;17.33;70.15;101469.00;5051746;28;20082;-58
2023/10/26 00:21:53;;;;;;;3.83;1.40;;;;;;;17.26;69.74;101465.56;5052141;28;20174;-59
2023/10/26 00:24:19;;;;;;;2.97;1.10;;;;;;;17.29;70.32;101478.63;5052552;28;20036;-59
2023/10/26 00:26:45;;;;;;;3.75;1.40;;;;;;;17.22;70.91;101471.69;5051699;28;20048;-58
2023/10/26 00:29:12;;;;;;;3.92;1.15;;;;;;;17.19;71.33;101467.56;5051339;28;20029;-59
2023/10/26 00:31:38;;;;;;;8.85;2.25;;;;;;;17.28;70.73;101481.56;5051762;28;20073;-57
2023/10/26 00:34:04;;;;;;;2.45;1.02;;;;;;;17.23;70.66;101473.34;5051671;28;20048;-58
2023/10/26 00:36:30;;;;;;;4.90;1.52;;;;;;;17.31;72.40;101481.09;5051500;28;20029;-58
2023/10/26 00:38:57;;;;;;;7.22;1.38;;;;;;;17.31;73.50;101483.78;5050962;28;20021;-58
2023/10/26 00:41:23;;;;;;;7.50;1.75;;;;;;;17.32;74.34;101482.72;5051568;28;20029;-58
2023/10/26 00:43:49;;;;;;;1.65;1.00;;;;;;;17.40;74.49;101479.69;5051555;28;20108;-58
2023/10/26 00:46:16;;;;;;;5.03;1.25;;;;;;;17.37;74.28;101469.31;5051718;28;20112;-58
2023/10/26 00:48:42;;;;;;;2.90;1.33;;;;;;;17.30;74.20;101463.22;5051492;28;20487;-59
2023/10/26 00:51:08;;;;;;;2.75;1.15;;;;;;;17.39;73.34;101451.00;5065154;28;20372;-58
2023/10/26 00:53:35;;;;;;;4.25;1.42;;;;;;;17.49;72.97;101451.22;5051490;28;20033;-58
2023/10/26 00:56:02;;;;;;;3.53;1.50;;;;;;;17.48;73.16;101457.66;5051601;28;20029;-58
2023/10/26 00:58:29;;;;;;;3.50;1.27;;;;;;;17.43;73.28;101465.66;5051123;28;20132;-57
2023/10/26 01:00:56;;;;;;;3.58;1.25;;;;;;;17.37;73.36;101469.31;5051451;28;20032;-59
2023/10/26 01:03:24;;;;;;;3.28;1.10;;;;;;;17.42;73.43;101466.72;5051326;28;20032;-59
2023/10/26 01:05:50;;;;;;;4.32;1.50;;;;;;;17.35;73.69;101463.34;5051583;28;20021;-58
2023/10/26 01:08:16;;;;;;;3.03;1.10;;;;;;;17.43;73.11;101468.38;5051252;28;20029;-59
2023/10/26 01:10:43;;;;;;;3.42;1.17;;;;;;;17.37;73.53;101467.44;5051239;28;20025;-58
2023/10/26 01:13:10;;;;;;;3.22;1.38;;;;;;;17.35;73.64;101482.28;5054577;28;20024;-58
2023/10/26 01:15:36;;;;;;;4.38;1.25;;;;;;;17.43;73.87;101487.31;5064930;28;20224;-59
2023/10/26 01:18:02;;;;;;;4.63;1.40;;;;;;;17.40;74.08;101490.50;5059952;28;20479;-57
2023/10/26 01:20:29;;;;;;;3.70;1.35;;;;;;;17.31;74.78;101489.22;5061979;28;20036;-58
2023/10/26 01:22:55;;;;;;;3.92;1.35;;;;;;;17.28;74.77;101490.50;5075328;28;20028;-58
2023/10/26 01:25:21;;;;;;;2.90;1.30;;;;;;;17.43;73.99;101481.91;5074131;28;20020;-58
2023/10/26 01:27:48;;;;;;;2.55;1.45;;;;;;;17.38;74.48;101485.34;5062901;28;20058;-58
2023/10/26 01:30:16;;;;;;;2.75;1.25;;;;;;;17.38;74.60;101489.94;5053465;28;20166;-58
2023/10/26 01:32:43;;;;;;;5.88;2.22;;;;;;;17.31;74.73;101491.91;5063818;28;20024;-58
2023/10/26 01:35:09;;;;;;;2.17;1.10;;;;;;;17.26;73.98;101486.38;5071068;28;20025;-58
2023/10/26 01:37:38;;;;;;;1.77;0.98;;;;;;;17.37;73.70;101501.78;5068408;28;20052;-58
2023/10/26 01:40:07;;;;;;;3.28;1.30;;;;;;;17.22;74.57;101491.47;5060175;28;20087;-58
2023/10/26 01:42:33;;;;;;;5.88;1.67;;;;;;;17.24;74.43;101492.03;5058466;28;20436;-58
2023/10/26 01:44:59;;;;;;;2.88;1.30;;;;;;;17.35;73.56;101495.81;5054722;28;20084;-58
2023/10/26 01:47:26;;;;;;;1.75;1.17;;;;;;;17.31;73.97;101492.72;5055089;28;20036;-58
2023/10/26 01:49:52;;;;;;;2.85;1.20;;;;;;;17.39;73.40;101494.28;5054754;28;20025;-58
2023/10/26 01:52:18;;;;;;;3.80;1.00;;;;;;;17.27;74.11;101493.47;5061930;28;20031;-58
2023/10/26 01:54:44;;;;;;;1.67;0.80;;;;;;;17.29;74.71;101496.75;5073945;28;20028;-58
2023/10/26 01:57:11;;;;;;;2.60;1.00;;;;;;;17.19;75.11;101500.03;5070965;28;20039;-58
2023/10/26 01:59:37;;;;;;;2.65;1.30;;;;;;;17.23;74.98;101505.81;5071472;28;20028;-59
2023/10/26 02:02:04;;;;;;;1.98;1.10;;;;;;;17.25;74.87;101506.38;5046167;28;20485;-58
2023/10/26 02:04:30;;;;;;;2.60;1.20;;;;;;;17.10;76.01;101509.53;5054896;28;20471;-58
2023/10/26 02:06:56;;;;;;;2.45;1.27;;;;;;;17.26;75.72;101510.72;5055695;28;20519;-58
2023/10/26 02:09:22;;;;;;;2.10;1.20;;;;;;;17.22;75.74;101512.28;5054212;28;20379;-58
2023/10/26 02:11:48;;;;;;;2.38;1.38;;;;;;;17.20;75.49;101515.19;5054445;28;20021;-58
2023/10/26 02:14:15;;;;;;;1.92;0.98;;;;;;;17.15;75.82;101520.47;5054289;28;20033;-59
2023/10/26 02:16:41;;;;;;;2.00;0.93;;;;;;;17.09;76.14;101516.81;5063822;28;20035;-58
2023/10/26 02:19:07;;;;;;;2.78;1.05;;;;;;;17.03;76.04;101525.88;5056406;28;20082;-58
2023/10/26 02:21:35;;;;;;;3.05;1.17;;;;;;;16.99;75.98;101522.00;5055270;28;20029;-58
2023/10/26 02:24:01;;;;;;;3.05;1.33;;;;;;;17.02;76.37;101528.81;5064679;28;20021;-58
2023/10/26 02:26:29;;;;;;;3.40;1.52;;;;;;;17.03;77.17;101533.97;5054187;28;20029;-58
2023/10/26 02:28:55;;;;;;;2.88;1.35;;;;;;;17.01;77.06;101536.09;5054244;28;20501;-58
2023/10/26 02:31:21;;;;;;;6.43;1.42;;;;;;;16.94;75.31;101532.69;5053358;28;20033;-58
2023/10/26 02:33:47;;;;;;;5.13;1.13;;;;;;;16.59;76.57;101536.03;5067468;28;20025;-57
2023/10/26 02:36:14;;;;;;;1.85;0.68;;;;;;;16.70;76.30;101547.13;5074050;28;20028;-58
2023/10/26 02:38:40;;;;;;;1.98;1.13;;;;;;;16.78;75.72;101541.44;5064342;28;20036;-58
2023/10/26 02:41:07;;;;;;;3.20;0.90;;;;;;;16.72;75.66;101545.06;5067116;28;20029;-58
2023/10/26 02:43:33;;;;;;;2.33;0.82;;;;;;;16.59;76.05;101546.84;5073944;28;20506;-58
2023/10/26 02:46:05;;;;;;;2.53;0.88;;;;;;;16.61;76.09;101541.25;5073923;28;20397;-58
2023/10/26 02:48:33;;;;;;;2.00;0.75;;;;;;;16.63;76.26;101547.22;5073728;28;20104;-58
2023/10/26 02:51:00;;;;;;;1.20;0.70;;;;;;;16.57;76.28;101543.56;5073904;28;20028;-58
2023/10/26 02:53:26;;;;;;;1.98;1.25;;;;;;;16.76;75.27;101548.94;5073953;28;20073;-58
2023/10/26 02:55:52;;;;;;;2.70;0.80;;;;;;;16.85;74.95;101550.28;5073729;28;20025;-58
2023/10/26 02:58:18;;;;;;;1.17;0.85;;;;;;;16.80;75.29;101558.25;5073434;28;20035;-57
2023/10/26 03:00:45;;;;;;;0.95;0.70;;;;;;;16.69;75.82;101550.91;5073630;28;20035;-57
2023/10/26 03:03:11;;;;;;;3.35;1.20;;;;;;;16.66;76.24;101559.44;5073501;28;20032;-57
2023/10/26 03:05:38;;;;;;;3.50;1.25;;;;;;;16.50;77.16;101559.06;5065623;28;20032;-57
2023/10/26 03:08:05;;;;;;;2.13;0.98;;;;;;;16.60;76.49;101555.78;5056574;28;20510;-58
2023/10/26 03:10:31;;;;;;;1.83;0.90;;;;;;;16.69;76.28;101553.59;5052971;28;20064;-57
2023/10/26 03:12:58;;;;;;;1.77;0.90;;;;;;;16.63;76.35;101556.16;5053510;28;20475;-57
2023/10/26 03:15:24;;;;;;;2.13;1.15;;;;;;;16.59;76.80;101552.25;5070301;28;20137;-58
2023/10/26 03:17:50;;;;;;;2.22;0.90;;;;;;;16.68;75.95;101549.25;5072819;28;20025;-57
2023/10/26 03:20:16;;;;;;;2.22;1.20;;;;;;;16.59;76.05;101552.25;5069624;28;20066;-58
2023/10/26 03:22:43;;;;;;;1.85;0.95;;;;;;;16.62;75.97;101554.53;5060241;28;20061;-57
2023/10/26 03:25:13;;;;;;;1.00;0.90;;;;;;;16.66;75.73;101544.09;5053278;28;20021;-58
2023/10/26 03:27:40;;;;;;;2.08;1.15;;;;;;;16.56;76.21;101547.31;5061864;28;20032;-57
2023/10/26 03:30:07;;;;;;;1.85;1.17;;;;;;;16.57;76.08;101554.38;5070379;28;20025;-57
2023/10/26 03:32:34;;;;;;;3.15;1.30;;;;;;;16.61;75.53;101547.47;5072239;28;20025;-57
2023/10/26 03:35:00;;;;;;;0.90;0.60;;;;;;;16.68;74.82;101543.84;5078941;22;20053;-57
2023/10/26 03:37:27;;;;;;;3.45;1.20;;;;;;;16.59;75.70;101536.03;5072672;28;20024;-57
2023/10/26 03:39:54;;;;;;;2.20;0.82;;;;;;;16.75;75.78;101536.50;5072147;28;20453;-57
2023/10/26 03:42:21;;;;;;;1.40;0.68;;;;;;;16.66;76.33;101538.69;5072590;28;20064;-57
2023/10/26 03:44:47;;;;;;;1.55;1.02;;;;;;;16.70;76.06;101531.75;5072795;28;20501;-57
2023/10/26 03:47:15;;;;;;;1.60;0.82;;;;;;;16.59;76.66;101536.03;5072603;28;20028;-57
2023/10/26 03:49:41;;;;;;;1.52;0.90;;;;;;;16.69;76.04;101529.28;5072104;28;20383;-57
2023/10/26 03:52:07;;;;;;;1.85;0.85;;;;;;;16.73;75.46;101531.31;5072479;28;20025;-57
2023/10/26 03:54:34;;;;;;;1.55;0.73;;;;;;;16.60;75.95;101537.72;5072712;28;20031;-57
2023/10/26 03:57:00;;;;;;;1.55;0.70;;;;;;;16.49;76.38;101537.63;5072577;28;20403;-58
2023/10/26 03:59:26;;;;;;;1.85;1.05;;;;;;;16.55;76.16;101548.38;5072230;28;20455;-57
2023/10/26 04:01:52;;;;;;;3.95;1.05;;;;;;;16.45;76.59;101549.97;5065978;28;20423;-58
2023/10/26 04:04:18;;;;;;;2.15;1.00;;;;;;;16.42;76.73;101551.25;5056505;28;20086;-57
2023/10/26 04:06:45;;;;;;;2.55;1.30;;;;;;;16.45;76.64;101558.91;5051719;28;20030;-58
2023/10/26 04:09:13;;;;;;;2.05;1.15;;;;;;;16.45;76.67;101563.50;5051955;28;20115;-57
2023/10/26 04:11:42;;;;;;;2.38;1.13;;;;;;;16.53;76.53;101574.78;5051944;28;20032;-57
2023/10/26 04:14:08;;;;;;;3.13;0.90;;;;;;;16.20;78.07;101575.19;5051993;28;20029;-57
2023/10/26 04:16:34;;;;;;;3.10;1.42;;;;;;;16.20;78.39;101575.19;5051883;28;20025;-58
2023/10/26 04:19:00;;;;;;;2.92;0.90;;;;;;;16.12;79.01;101585.50;5066153;28;20025;-57
2023/10/26 04:21:27;;;;;;;1.58;1.00;;;;;;;16.22;78.61;101577.69;5071893;28;20020;-57
2023/10/26 04:23:53;;;;;;;2.08;1.10;;;;;;;16.17;78.88;101585.66;5071938;28;20048;-58
2023/10/26 04:26:19;;;;;;;2.13;0.90;;;;;;;16.09;79.35;101578.66;5071897;28;20082;-58
2023/10/26 04:28:46;;;;;;;1.98;1.02;;;;;;;15.95;79.94;101580.69;5071397;28;20116;-57
2023/10/26 04:31:12;;;;;;;2.53;1.20;;;;;;;15.98;79.93;101591.00;5071743;28;20035;-57
2023/10/26 04:33:38;;;;;;;2.33;0.90;;;;;;;16.08;79.47;101596.72;5071576;28;20115;-57
2023/10/26 04:36:06;;;;;;;3.63;1.30;;;;;;;16.02;79.42;101589.53;5071587;28;20045;-57
2023/10/26 04:38:34;;;;;;;2.17;0.95;;;;;;;15.98;79.49;101598.28;5071815;28;20032;-58
2023/10/26 04:41:00;;;;;;;1.48;1.00;;;;;;;16.04;78.96;101598.22;5071196;28;20027;-58
2023/10/26 04:43:26;;;;;;;3.88;1.02;;;;;;;16.05;78.97;101599.88;5062908;28;20032;-58
2023/10/26 04:45:53;;;;;;;1.60;0.82;;;;;;;15.82;80.24;101605.09;5051503;28;20017;-57
2023/10/26 04:48:19;;;;;;;2.78;0.95;;;;;;;15.89;79.64;101605.03;5050879;28;20029;-57
2023/10/26 04:50:46;;;;;;;2.00;0.70;;;;;;;16.01;79.03;101603.25;5055933;28;20437;-58
2023/10/26 04:53:13;;;;;;;1.85;0.88;;;;;;;15.87;80.29;101601.72;5067435;28;20017;-57
2023/10/26 04:55:39;;;;;;;1.50;0.90;;;;;;;16.03;79.29;101593.88;5067412;28;20439;-58
2023/10/26 04:58:05;;;;;;;2.58;1.38;;;;;;;16.02;79.34;101596.81;5068328;28;20063;-58
2023/10/26 05:00:32;;;;;;;1.80;1.00;;;;;;;15.97;78.93;101605.56;5051132;28;20045;-58
2023/10/26 05:02:58;;;;;;;2.17;1.25;;;;;;;15.87;79.10;101609.81;5063390;28;20021;-58
2023/10/26 05:05:24;;;;;;;1.27;0.90;;;;;;;16.02;77.45;101616.53;5071831;28;20056;-57
2023/10/26 05:07:51;;;;;;;1.90;0.98;;;;;;;15.84;78.04;101609.22;5070346;28;20029;-58
2023/10/26 05:10:17;;;;;;;1.75;0.70;;;;;;;15.78;77.97;101620.91;5071573;28;20104;-58
2023/10/26 05:12:43;;;;;;;2.60;0.75;;;;;;;15.94;77.10;101616.84;5071787;28;20020;-58
2023/10/26 05:15:09;;;;;;;1.08;0.70;;;;;;;15.85;77.34;101620.84;5071690;28;20028;-58
2023/10/26 05:17:37;;;;;;;0.88;0.60;;;;;;;15.85;77.63;101626.25;5071786;28;20029;-58
2023/10/26 05:20:04;;;;;;;1.02;0.60;;;;;;;15.84;77.63;101622.72;5070930;28;20386;-58
2023/10/26 05:22:32;;;;;;;1.05;0.63;;;;;;;15.80;77.84;101639.59;5071498;28;20024;-58
2023/10/26 05:25:00;;;;;;;4.00;1.20;;;;;;;15.74;78.30;101638.59;5071402;28;20021;-58
2023/10/26 05:27:26;;;;;;;2.50;0.80;;;;;;;15.88;78.23;101633.06;5069227;28;20032;-58
2023/10/26 05:29:53;;;;;;;6.07;1.00;;;;;;;15.91;78.53;101629.94;5050910;28;20056;-58
2023/10/26 05:32:20;;;;;;;2.05;0.95;;;;;;;15.78;79.24;101631.72;5058935;28;20386;-58
2023/10/26 05:34:46;;;;;;;3.67;1.30;;;;;;;15.68;79.93;101641.34;5070753;28;20045;-58
2023/10/26 05:37:13;;;;;;;1.60;0.90;;;;;;;15.75;80.26;101642.13;5057409;28;20017;-58
2023/10/26 05:39:39;;;;;;;2.35;0.98;;;;;;;15.68;80.33;101646.75;5061271;28;20032;-58
2023/10/26 05:42:05;;;;;;;3.58;0.90;;;;;;;15.62;80.57;101643.03;5071108;28;20457;-58
2023/10/26 05:44:31;;;;;;;0.90;0.80;;;;;;;15.62;80.50;101648.44;5071150;28;20412;-58
2023/10/26 05:46:59;;;;;;;1.63;0.98;;;;;;;15.65;80.14;101655.28;5071362;28;20451;-58
2023/10/26 05:49:26;;;;;;;1.52;1.00;;;;;;;15.54;80.54;101646.81;5071076;28;20033;-58
2023/10/26 05:51:52;;;;;;;1.02;0.70;;;;;;;15.54;80.45;101654.91;5053866;28;20025;-58
2023/10/26 05:54:18;;;;;;;1.92;0.93;;;;;;;15.59;80.13;101648.84;5059315;28;20386;-57
2023/10/26 05:56:44;;;;;;;2.05;1.08;;;;;;;15.48;80.31;101644.97;5058451;28;20032;-58
2023/10/26 05:59:11;;;;;;;1.83;0.90;;;;;;;15.43;80.73;101644.00;5068248;28;20033;-58
2023/10/26 06:01:37;;;;;;;1.20;0.75;;;;;;;15.44;80.46;101648.38;5074819;28;20055;-58
2023/10/26 06:04:03;;;;;;;5.07;1.30;;;;;;;15.29;80.96;101645.97;5074705;28;20024;-58
2023/10/26 06:06:30;;;;;;;1.52;1.00;;;;;;;15.28;81.11;101644.31;5074970;28;20104;-58
2023/10/26 06:08:56;;;;;;;2.05;0.90;;;;;;;15.11;81.76;101643.19;5073226;28;20103;-58
2023/10/26 06:11:22;;;;;;;2.95;1.00;;;;;;;15.21;81.02;101643.50;5074609;28;20025;-57
2023/10/26 06:13:48;;;;;;;2.30;1.10;;;;;;;15.03;82.08;101638.84;5074622;28;20173;-57
2023/10/26 06:16:16;;;;;;;2.25;0.80;;;;;;;15.00;82.18;101644.69;5056428;28;20087;-57
2023/10/26 06:18:42;;;;;;;2.42;0.90;;;;;;;15.02;81.79;101645.28;5053837;28;20087;-57
2023/10/26 06:21:09;;;;;;;0.75;0.63;;;;;;;14.79;82.88;101643.94;5053678;28;20108;-58
2023/10/26 06:23:36;;;;;;;4.32;1.23;;;;;;;14.93;82.23;101639.31;5054155;28;20420;-58
2023/10/26 06:26:03;;;;;;;3.78;0.98;;;;;;;15.01;81.44;101641.78;5073498;28;20107;-58
2023/10/26 06:28:30;;;;;;;1.75;0.70;;;;;;;14.78;82.57;101636.91;5073889;28;20033;-58
2023/10/26 06:31:07;;;;;;;4.07;1.15;;;;;;;14.77;81.99;101639.84;5052281;28;20025;-57
2023/10/26 06:33:33;;;;;;;6.43;0.93;;;;;;;14.77;81.70;101640.66;5054166;28;20122;-58
2023/10/26 06:35:59;;;;;;;1.73;0.82;;;;;;;14.61;80.98;101640.31;5053275;28;20386;-58
2023/10/26 06:38:26;;;;;;;1.15;0.90;;;;;;;14.67;79.50;101647.53;5053282;28;20075;-58
2023/10/26 06:40:52;;;;;;;1.20;0.80;;;;;;;14.31;77.60;101648.84;5053724;28;20083;-58
2023/10/26 06:43:18;;;;;;;2.53;1.00;;;;;;;14.46;75.38;101654.00;5053689;28;20398;-57
2023/10/26 06:45:44;;;;;;;1.67;0.70;;;;;;;14.28;73.33;101657.34;5053478;28;20387;-57
2023/10/26 06:48:11;;;;;;;3.35;0.90;;;;;;;13.92;73.79;101658.63;5052819;28;20035;-57
2023/10/26 06:50:38;;;;;;;3.38;0.98;;;;;;;14.02;72.77;101646.63;5053127;28;20546;-57
2023/10/26 06:53:04;;;;;;;2.20;0.70;;;;;;;14.02;72.81;101652.84;5053326;28;20013;-57
2023/10/26 06:55:33;;;;;;;1.83;0.93;;;;;;;14.12;72.04;101655.09;5063830;28;20371;-57
2023/10/26 06:58:00;;;;;;;2.95;1.00;;;;;;;13.72;74.27;101655.16;5070323;28;20032;-57
2023/10/26 07:00:26;;;;;;;2.28;0.93;;;;;;;13.88;73.51;101668.19;5065617;28;20025;-57
2023/10/26 07:02:53;;;;;;;2.10;0.80;;;;;;;13.78;74.08;101665.06;5057687;28;20099;-57
2023/10/26 07:05:19;;;;;;;2.58;0.98;;;;;;;13.70;75.27;101663.41;5073512;28;20029;-57
2023/10/26 07:07:45;;;;;;;2.72;1.17;;;;;;;13.88;74.68;101651.19;5073253;28;20162;-57
2023/10/26 07:10:16;;;;;;;2.80;0.80;;;;;;;13.59;75.93;101663.19;5073595;28;20024;-57
2023/10/26 07:12:43;;;;;;;1.80;0.90;;;;;;;13.84;74.73;101661.56;5073471;28;20021;-57
2023/10/26 07:15:10;;;;;;;1.88;1.00;;;;;;;13.58;73.29;101666.91;5068036;28;20036;-58
2023/10/26 07:17:37;;;;;;;1.98;0.80;;;;;;;13.56;70.85;101674.38;5054579;28;20155;-57
2023/10/26 07:20:04;;;;;;;2.03;0.90;;;;;;;13.53;71.38;101669.38;5073264;28;20047;-57
2023/10/26 07:22:33;;;;;;;1.63;0.90;;;;;;;13.47;69.18;101666.50;5073122;28;20032;-57
2023/10/26 07:25:02;;;;;;;0.95;0.68;;;;;;;13.41;68.29;101670.00;5073121;28;20035;-57
2023/10/26 07:27:34;;;;;;;1.55;0.70;;;;;;;13.35;68.59;101667.31;5073045;28;20028;-57
2023/10/26 07:30:01;;;;;;;2.28;0.95;;;;;;;13.31;67.96;101672.25;5073195;28;20090;-57
2023/10/26 07:32:27;;;;;;;1.20;0.80;;;;;;;13.32;68.55;101673.06;5072680;28;20475;-57
2023/10/26 07:34:54;;;;;;;1.33;0.70;;;;;;;13.25;68.19;101670.38;5072800;28;20044;-57
2023/10/26 07:37:20;;;;;;;2.45;0.80;;;;;;;13.20;68.50;101675.50;5064958;28;20040;-57
2023/10/26 07:39:47;;;;;;;1.80;0.63;;;;;;;13.15;68.56;101676.09;5052003;28;20061;-57
2023/10/26 07:42:13;;;;;;;1.35;0.90;;;;;;;13.09;69.03;101676.09;5052197;28;20029;-58
2023/10/26 07:44:39;;;;;;;2.03;1.20;;;;;;;13.04;69.39;101665.13;5064842;28;20287;-58
2023/10/26 07:47:08;;;;;;;1.42;0.80;;;;;;;13.02;69.53;101664.50;5072335;28;20032;-57
2023/10/26 07:49:34;;;;;;;1.95;1.20;;;;;;;12.98;69.65;101665.91;5055642;28;20037;-57
2023/10/26 07:52:01;;;;;;;1.70;0.80;;;;;;;12.95;69.68;101673.38;5052281;28;20112;-57
2023/10/26 07:54:27;;;;;;;0.98;0.60;;;;;;;12.91;69.76;101668.59;5052350;28;20475;-57
2023/10/26 07:56:53;;;;;;;2.72;0.90;;;;;;;12.89;69.94;101673.34;5051989;28;20032;-57
2023/10/26 07:59:19;;;;;;;0.77;0.70;;;;;;;12.76;70.12;101673.28;5069784;28;20032;-57
2023/10/26 08:01:47;;;;;;;1.02;0.70;;;;;;;12.69;70.43;101673.25;5072071;28;20025;-57
2023/10/26 08:04:13;;;;;;;1.70;0.70;;;;;;;12.62;70.54;101678.59;5072144;28;20031;-57
2023/10/26 08:06:40;;;;;;;2.45;1.05;;;;;;;12.49;70.65;101677.69;5072186;28;20402;-57
2023/10/26 08:09:06;;;;;;;1.48;0.68;;;;;;;12.43;70.77;101680.13;5071750;28;20510;-57
2023/10/26 08:11:32;;;;;;;1.63;0.95;;;;;;;12.37;70.81;101690.84;5071775;28;20032;-57
2023/10/26 08:13:58;;;;;;;3.33;1.17;;;;;;;12.36;70.56;101690.00;5071799;28;20029;-57
2023/10/26 08:16:25;;;;;;;2.88;1.60;;;;;;;12.31;70.31;101697.81;5071905;28;20020;-57
2023/10/26 08:18:52;;;;;;;3.80;1.88;;;;;;;12.17;70.81;101701.44;5060632;28;20032;-57
2023/10/26 08:21:18;;;;;;;3.38;1.52;;;;;;;12.17;70.63;101703.31;5064099;28;20047;-57
2023/10/26 08:23:44;;;;;;;5.07;1.80;;;;;;;12.29;69.72;101709.78;5051886;28;20029;-57
2023/10/26 08:26:11;;;;;;;4.53;1.85;;;;;;;12.30;68.97;101714.97;5055226;28;20033;-57
2023/10/26 08:28:37;;;;;;;3.33;1.33;;;;;;;12.27;68.03;101710.00;5071533;28;20028;-57
2023/10/26 08:31:04;;;;;;;4.78;1.30;;;;;;;12.26;67.91;101716.38;5070252;28;20017;-57
2023/10/26 08:33:31;;;;;;;4.10;1.55;;;;;;;11.83;69.51;101713.78;5051385;28;20082;-57
2023/10/26 08:35:58;;;;;;;4.95;1.63;;;;;;;11.78;70.11;101718.03;5051471;28;20049;-57
2023/10/26 08:38:25;;;;;;;3.17;1.40;;;;;;;11.53;70.57;101721.06;5051671;28;20025;-57
2023/10/26 08:40:52;;;;;;;3.20;1.50;;;;;;;11.67;70.47;101716.69;5051418;28;20037;-57
2023/10/26 08:43:20;;;;;;;3.50;1.55;;;;;;;11.58;70.50;101720.50;5069969;28;20371;-57
2023/10/26 08:45:47;;;;;;;3.47;1.48;;;;;;;11.37;71.61;101727.50;5071627;28;20025;-57
2023/10/26 08:48:18;;;;;;;3.47;1.65;;;;;;;11.33;71.98;101718.19;5065651;28;20395;-57
2023/10/26 08:50:48;;;;;;;3.42;1.48;;;;;;;11.28;72.32;101723.28;5052412;28;20092;-57
2023/10/26 08:53:15;;;;;;;2.75;1.65;;;;;;;11.24;72.40;101722.00;5071510;28;20024;-57
2023/10/26 08:55:43;;;;;;;4.50;1.80;;;;;;;11.33;72.12;101731.59;5071774;28;20108;-57
2023/10/26 08:58:09;;;;;;;2.80;1.85;;;;;;;11.35;72.41;101729.53;5070612;28;20029;-57
2023/10/26 09:00:40;;;;;;;4.40;2.00;;;;;;;11.36;72.38;101728.53;5071153;28;20032;-57
2023/10/26 09:03:07;;;;;;;4.15;1.58;;;;;;;11.39;72.40;101734.53;5071437;28;20020;-57
2023/10/26 09:05:50;;;;;;;4.85;1.80;;;;;;;11.29;73.27;101729.47;5071407;28;20103;-57
2023/10/26 09:08:20;;;;;;;3.70;1.90;;;;;;;11.33;73.71;101730.78;5071271;28;20040;-57
2023/10/26 09:10:46;;;;;;;5.03;2.00;;;;;;;10.94;75.89;101739.13;5071123;28;20033;-57
2023/10/26 09:13:14;;;;;;;5.68;2.05;;;;;;;11.05;75.98;101739.50;5071555;28;20032;-57
2023/10/26 09:15:49;;;;;;;3.05;1.45;;;;;;;11.17;75.89;101726.47;5071134;28;20025;-57
2023/10/26 09:18:16;;;;;;;6.40;2.13;;;;;;;11.10;76.44;101734.44;5069874;28;20036;-57
2023/10/26 09:21:00;;;;;;;8.25;2.05;;;;;;;11.01;76.92;101735.53;5063948;28;20033;-57
2023/10/26 09:23:30;;;;;;;6.55;1.80;;;;;;;10.84;77.68;101744.78;5051277;28;20021;-57
2023/10/26 09:26:04;;;;;;;5.60;2.03;;;;;;;10.76;78.00;101735.00;5070413;28;20024;-57
2023/10/26 09:28:56;;;;;;;3.30;1.63;;;;;;;10.84;77.25;101740.28;5070630;28;20052;-57
2023/10/26 09:31:24;;;;;;;2.33;1.23;;;;;;;10.93;77.00;101743.66;5066969;28;20143;-57
2023/10/26 09:33:51;;;;;;;3.58;1.48;;;;;;;10.77;76.93;101736.69;5051690;28;20041;-56
2023/10/26 09:36:20;;;;;;;4.95;1.40;;;;;;;10.96;75.66;101729.09;5054755;28;20415;-57
2023/10/26 09:38:47;;;;;;;4.18;1.38;;;;;;;10.84;74.67;101734.91;5055731;28;20025;-57
2023/10/26 09:41:16;;;;;;;3.20;1.70;;;;;;;10.95;73.78;101728.25;5054609;28;20029;-57
2023/10/26 09:43:43;;;;;;;5.88;1.65;;;;;;;10.65;74.33;101735.44;5054524;28;20024;-55
2023/10/26 09:46:13;;;;;;;2.72;1.35;;;;;;;10.79;74.05;101740.00;5054813;28;20033;-55
2023/10/26 09:48:40;;;;;;;3.92;1.58;;;;;;;10.80;74.14;101747.00;5057185;28;20124;-56
2023/10/26 09:51:07;;;;;;;2.97;1.52;;;;;;;10.61;75.57;101742.22;5063487;28;20044;-57
2023/10/26 09:53:42;;;;;;;3.22;1.42;;;;;;;10.69;75.68;101738.59;5071330;28;20081;-56
2023/10/26 09:56:17;;;;;;;3.95;1.33;;;;;;;10.61;75.93;101736.84;5072906;28;20051;-56
2023/10/26 09:58:44;;;;;;;1.98;1.30;;;;;;;10.68;75.68;101735.09;5069629;28;20546;-57
2023/10/26 10:01:33;;;;;;;3.00;1.30;;;;;;;10.67;75.94;101736.13;5062680;28;20258;-56
2023/10/26 10:04:06;;;;;;;1.63;1.20;;;;;;;10.78;75.38;101727.63;5055877;28;20431;-56
2023/10/26 10:06:44;;;;;;;2.45;1.05;;;;;;;10.73;75.59;101719.31;5073986;28;20033;-56
2023/10/26 10:09:10;;;;;;;3.75;1.77;;;;;;;10.71;75.38;101718.66;5066933;28;20056;-57
2023/10/26 10:11:38;;;;;;;2.03;1.10;;;;;;;10.63;75.77;101715.25;5054624;28;20394;-56
2023/10/26 10:14:05;;;;;;;2.58;1.60;;;;;;;10.63;75.80;101731.31;5054424;28;20029;-57
2023/10/26 10:16:34;;;;;;;2.10;1.42;;;;;;;10.52;76.33;101725.41;5054482;28;20025;-57
2023/10/26 10:19:20;;;;;;;4.82;1.55;;;;;;;10.81;75.37;101727.22;5054047;28;20021;-57
2023/10/26 10:21:48;;;;;;;3.42;1.45;;;;;;;10.61;75.54;101728.00;5065215;28;20382;-57
2023/10/26 10:24:39;;;;;;;3.58;1.60;;;;;;;10.71;75.57;101721.31;5073687;28;20128;-57
2023/10/26 10:27:15;;;;;;;2.75;1.42;;;;;;;10.45;76.61;101726.31;5065708;28;20502;-57
2023/10/26 10:29:42;;;;;;;2.63;1.10;;;;;;;10.34;77.24;101726.78;5073998;28;20064;-57
2023/10/26 10:32:12;;;;;;;1.75;1.13;;;;;;;10.25;77.65;101734.03;5073990;28;20074;-57
2023/10/26 10:34:45;;;;;;;2.67;1.20;;;;;;;10.29;77.87;101730.00;5073477;28;20056;-57
2023/10/26 10:37:22;;;;;;;3.65;1.75;;;;;;;10.29;78.04;101727.31;5070931;28;20107;-57
2023/10/26 10:40:11;;;;;;;6.32;1.50;;;;;;;10.43;77.87;101720.31;5070163;28;20396;-56
2023/10/26 10:42:49;;;;;;;2.50;1.35;;;;;;;10.37;77.75;101731.75;5065915;28;20028;-56
2023/10/26 10:45:17;;;;;;;5.07;1.90;;;;;;;10.30;78.13;101728.97;5067691;28;20474;-57
2023/10/26 10:47:45;;;;;;;6.90;1.85;;;;;;;10.13;79.03;101730.94;5072981;28;20020;-56
2023/10/26 10:50:25;;;;;;;3.33;1.70;;;;;;;9.97;79.71;101733.75;5072725;28;20032;-56
2023/10/26 10:52:55;;;;;;;3.30;1.75;;;;;;;9.92;80.18;101733.47;5073376;28;20074;-56
2023/10/26 10:55:25;;;;;;;3.58;1.60;;;;;;;9.76;81.12;101743.28;5057181;28;20024;-57
2023/10/26 10:58:02;;;;;;;1.98;1.33;;;;;;;9.81;80.66;101744.59;5061454;28;20108;-56
2023/10/26 11:00:42;;;;;;;1.80;1.35;;;;;;;9.79;80.42;101745.59;5068232;28;20036;-56
2023/10/26 11:03:09;;;;;;;2.78;1.60;;;;;;;9.75;80.05;101744.28;5066874;28;20170;-55
2023/10/26 11:05:42;;;;;;;2.47;1.20;;;;;;;9.70;80.33;101743.16;5065230;28;20028;-56
2023/10/26 11:08:09;;;;;;;1.88;1.40;;;;;;;9.58;80.77;101744.59;5072870;28;20497;-56
2023/10/26 11:10:35;;;;;;;3.80;2.33;;;;;;;9.51;81.56;101747.97;5073412;28;20117;-57
2023/10/26 11:13:02;;;;;;;3.80;1.40;;;;;;;9.52;81.92;101754.97;5073359;28;20304;-57
2023/10/26 11:15:37;;;;;;;3.13;1.67;;;;;;;9.70;82.04;101751.19;5072999;28;20146;-56
2023/10/26 11:18:07;;;;;;;4.20;1.90;;;;;;;9.67;81.44;101749.72;5072905;28;20112;-56
2023/10/26 11:20:38;;;;;;;4.82;1.83;;;;;;;9.65;81.82;101743.69;5072530;28;20043;-56
2023/10/26 11:23:06;;;;;;;2.75;1.88;;;;;;;9.78;81.53;101746.63;5053305;28;20025;-56
2023/10/26 11:25:32;;;;;;;4.75;1.50;;;;;;;9.83;81.77;101742.56;5071005;28;20021;-56
2023/10/26 11:27:58;;;;;;;4.47;1.75;;;;;;;9.78;82.09;101740.44;5072499;28;20036;-56
2023/10/26 11:30:25;;;;;;;6.10;2.03;;;;;;;9.65;82.54;101749.03;5079159;22;20312;-56